createdAt,value
2019-05-10T00:00:05.801Z,311.37
2019-05-10T00:01:05.755Z,311.63
2019-05-10T00:02:05.772Z,311.31
2019-05-10T00:03:05.768Z,311.00
2019-05-10T00:04:05.817Z,311.08
2019-05-10T00:05:05.753Z,310.93
2019-05-10T00:06:05.737Z,311.09
2019-05-10T00:07:07.349Z,310.95
2019-05-10T00:08:05.754Z,311.22
2019-05-10T00:09:05.705Z,311.97
2019-05-10T00:10:05.681Z,312.97
2019-05-10T00:11:05.831Z,312.05
2019-05-10T00:12:05.657Z,311.75
2019-05-10T00:13:05.655Z,311.35
2019-05-10T00:14:05.654Z,310.94
2019-05-10T00:15:05.616Z,312.55
2019-05-10T00:16:06.509Z,311.42
2019-05-10T00:17:05.637Z,312.17
2019-05-10T00:18:05.593Z,311.42
2019-05-10T00:19:05.581Z,312.01
2019-05-10T00:20:05.575Z,311.76
2019-05-10T00:21:05.546Z,311.82
2019-05-10T00:22:05.606Z,311.85
2019-05-10T00:23:05.556Z,311.93
2019-05-10T00:24:05.515Z,311.54
2019-05-10T00:25:06.416Z,311.55
2019-05-10T00:26:05.491Z,311.41
2019-05-10T00:27:05.499Z,312.11
2019-05-10T00:28:05.529Z,311.87
2019-05-10T00:29:05.514Z,312.33
2019-05-10T00:30:05.464Z,310.68
2019-05-10T00:31:05.491Z,311.02
2019-05-10T00:32:05.436Z,311.40
2019-05-10T00:33:05.458Z,312.96
2019-05-10T00:34:05.447Z,310.93
2019-05-10T00:35:05.422Z,311.80
2019-05-10T00:36:05.407Z,311.54
2019-05-10T00:37:05.428Z,312.13
2019-05-10T00:38:05.413Z,312.47
2019-05-10T00:39:05.408Z,311.57
2019-05-10T00:40:05.392Z,311.46
2019-05-10T00:41:05.350Z,312.63
2019-05-10T00:42:05.354Z,312.03
2019-05-10T00:43:05.341Z,311.98
2019-05-10T00:44:05.362Z,312.17
2019-05-10T00:45:05.346Z,311.69
2019-05-10T00:46:05.319Z,312.65
2019-05-10T00:47:05.371Z,312.63
2019-05-10T00:48:05.267Z,313.03
2019-05-10T00:49:05.296Z,313.05
2019-05-10T00:50:05.280Z,312.89
2019-05-10T00:51:05.238Z,312.55
2019-05-10T00:52:05.230Z,311.98
2019-05-10T00:53:05.295Z,312.32
2019-05-10T00:54:05.253Z,313.52
2019-05-10T00:55:17.728Z,311.86
2019-05-10T00:56:06.177Z,312.08
2019-05-10T00:57:05.160Z,312.38
2019-05-10T00:58:05.176Z,312.65
2019-05-10T00:59:05.176Z,313.61
2019-05-10T01:00:05.136Z,313.52
2019-05-10T01:01:05.147Z,313.57
2019-05-10T01:02:14.556Z,313.82
2019-05-10T01:03:14.483Z,313.31
2019-05-10T01:04:14.998Z,313.40
2019-05-10T01:05:13.496Z,313.33
2019-05-10T01:06:14.555Z,313.49
2019-05-10T01:08:21.957Z,306.33
2019-05-10T01:09:29.599Z,312.43
2019-05-10T01:10:30.346Z,312.96
2019-05-10T01:11:31.392Z,313.54
2019-05-10T01:12:31.892Z,313.11
2019-05-10T01:13:31.427Z,312.71
2019-05-10T01:14:21.886Z,312.62
2019-05-10T01:15:21.906Z,312.45
2019-05-10T01:16:21.879Z,312.69
2019-05-10T01:17:21.856Z,312.35
2019-05-10T01:18:21.923Z,312.47
2019-05-10T01:19:21.822Z,313.14
2019-05-10T01:20:31.434Z,313.05
2019-05-10T01:21:21.804Z,312.92
2019-05-10T01:22:21.786Z,312.43
2019-05-10T01:23:21.800Z,312.15
2019-05-10T01:24:21.786Z,312.49
2019-05-10T01:25:34.065Z,312.33
2019-05-10T01:26:22.755Z,312.90
2019-05-10T01:27:21.785Z,312.75
2019-05-10T01:28:21.751Z,312.78
2019-05-10T01:29:21.724Z,313.67
2019-05-10T01:30:21.722Z,313.19
2019-05-10T01:31:21.731Z,312.64
2019-05-10T01:32:21.741Z,312.48
2019-05-10T01:33:21.676Z,312.31
2019-05-10T01:34:21.661Z,313.69
2019-05-10T01:35:21.694Z,312.74
2019-05-10T01:36:21.677Z,313.75
2019-05-10T01:37:21.650Z,312.94
2019-05-10T01:38:21.644Z,312.51
2019-05-10T01:39:21.624Z,312.69
2019-05-10T01:40:21.597Z,312.59
2019-05-10T01:41:21.605Z,312.42
2019-05-10T01:42:21.600Z,313.05
2019-05-10T01:43:21.576Z,312.49
2019-05-10T01:44:21.570Z,313.52
2019-05-10T01:45:21.543Z,313.49
2019-05-10T01:46:21.574Z,313.25
2019-05-10T01:47:21.557Z,313.16
2019-05-10T01:48:21.546Z,312.52
2019-05-10T01:49:21.511Z,312.75
2019-05-10T01:50:21.505Z,313.43
2019-05-10T01:51:21.489Z,313.68
2019-05-10T01:52:21.485Z,312.49
2019-05-10T01:53:21.522Z,312.41
2019-05-10T01:54:21.456Z,313.25
2019-05-10T01:55:21.478Z,313.14
2019-05-10T01:56:21.460Z,313.06
2019-05-10T01:57:21.488Z,312.75
2019-05-10T01:58:21.463Z,312.94
2019-05-10T01:59:21.435Z,313.02
2019-05-10T02:00:21.410Z,313.06
2019-05-10T02:01:21.402Z,313.67
2019-05-10T02:02:21.399Z,313.00
2019-05-10T02:03:21.380Z,312.51
2019-05-10T02:04:21.350Z,312.48
2019-05-10T02:05:21.346Z,312.99
2019-05-10T02:06:21.334Z,312.73
2019-05-10T02:07:22.637Z,313.02
2019-05-10T02:08:24.555Z,312.87
2019-05-10T02:09:22.412Z,313.22
2019-05-10T02:10:22.875Z,312.57
2019-05-10T02:11:21.304Z,312.33
2019-05-10T02:12:21.564Z,313.14
2019-05-10T02:13:21.471Z,313.00
2019-05-10T02:14:22.720Z,313.53
2019-05-10T02:15:21.342Z,313.13
2019-05-10T02:16:22.925Z,312.58
2019-05-10T02:17:22.377Z,312.20
2019-05-10T02:18:22.043Z,312.68
2019-05-10T02:19:21.888Z,313.04
2019-05-10T02:20:22.275Z,313.48
2019-05-10T02:21:23.009Z,313.37
2019-05-10T02:22:22.177Z,312.86
2019-05-10T02:23:23.583Z,312.79
2019-05-10T02:24:22.009Z,312.97
2019-05-10T02:25:22.381Z,313.10
2019-05-10T02:26:21.262Z,313.76
2019-05-10T02:27:21.882Z,313.48
2019-05-10T02:28:22.043Z,313.87
2019-05-10T02:29:22.411Z,313.68
2019-05-10T02:30:21.886Z,314.25
2019-05-10T02:31:21.896Z,313.84
2019-05-10T02:32:22.465Z,314.15
2019-05-10T02:33:21.971Z,314.09
2019-05-10T02:34:21.362Z,314.22
2019-05-10T02:35:21.160Z,313.92
2019-05-10T02:36:22.211Z,314.54
2019-05-10T02:37:22.676Z,313.07
2019-05-10T02:38:21.900Z,313.59
2019-05-10T02:39:22.888Z,313.46
2019-05-10T02:40:22.224Z,313.23
2019-05-10T02:41:21.896Z,312.92
2019-05-10T02:42:21.892Z,313.25
2019-05-10T02:43:21.098Z,313.19
2019-05-10T02:44:21.886Z,313.48
2019-05-10T02:45:21.027Z,313.65
2019-05-10T02:46:21.456Z,313.35
2019-05-10T02:47:21.018Z,310.98
2019-05-10T02:48:20.918Z,311.61
2019-05-10T02:49:20.914Z,313.20
2019-05-10T02:50:20.892Z,311.84
2019-05-10T02:51:20.854Z,312.53
2019-05-10T02:52:20.845Z,313.29
2019-05-10T02:53:20.861Z,311.96
2019-05-10T02:54:20.822Z,312.55
2019-05-10T02:55:20.893Z,313.14
2019-05-10T02:56:30.286Z,313.07
2019-05-10T02:57:21.812Z,311.58
2019-05-10T02:58:20.820Z,312.05
2019-05-10T02:59:20.791Z,311.95
2019-05-10T03:00:20.755Z,311.70
2019-05-10T03:01:20.748Z,312.35
2019-05-10T03:02:20.804Z,312.06
2019-05-10T03:03:20.729Z,312.40
2019-05-10T03:04:20.748Z,312.19
2019-05-10T03:05:20.725Z,311.94
2019-05-10T03:06:20.712Z,312.24
2019-05-10T03:07:20.814Z,311.75
2019-05-10T03:08:20.680Z,311.68
2019-05-10T03:09:20.680Z,312.39
2019-05-10T03:10:20.689Z,311.60
2019-05-10T03:11:20.682Z,311.73
2019-05-10T03:12:20.659Z,311.52
2019-05-10T03:13:20.619Z,311.66
2019-05-10T03:14:20.640Z,311.98
2019-05-10T03:15:20.625Z,311.79
2019-05-10T03:16:20.686Z,311.96
2019-05-10T03:17:20.602Z,311.97
2019-05-10T03:18:20.561Z,311.70
2019-05-10T03:19:20.560Z,310.45
2019-05-10T03:20:20.590Z,311.88
2019-05-10T03:21:20.562Z,310.93
2019-05-10T03:22:20.533Z,311.58
2019-05-10T03:23:20.545Z,311.24
2019-05-10T03:24:20.529Z,311.78
2019-05-10T03:25:20.499Z,311.48
2019-05-10T03:26:20.532Z,311.56
2019-05-10T03:27:20.483Z,311.65
2019-05-10T03:28:20.593Z,311.28
2019-05-10T03:29:20.477Z,311.72
2019-05-10T03:30:20.464Z,311.68
2019-05-10T03:31:20.450Z,311.45
2019-05-10T03:32:20.446Z,311.35
2019-05-10T03:33:20.451Z,311.37
2019-05-10T03:34:20.419Z,311.61
2019-05-10T03:35:20.396Z,311.98
2019-05-10T03:36:20.365Z,311.73
2019-05-10T03:37:20.421Z,311.04
2019-05-10T03:38:20.356Z,311.52
2019-05-10T03:39:20.392Z,311.69
2019-05-10T03:40:20.330Z,311.31
2019-05-10T03:41:20.325Z,311.97
2019-05-10T03:42:20.372Z,312.23
2019-05-10T03:43:20.350Z,311.13
2019-05-10T03:44:20.298Z,311.36
2019-05-10T03:45:20.279Z,311.38
2019-05-10T03:46:20.477Z,311.65
2019-05-10T03:47:20.334Z,311.83
2019-05-10T03:48:20.268Z,311.41
2019-05-10T03:49:20.313Z,312.03
2019-05-10T03:50:20.225Z,311.94
2019-05-10T03:51:20.212Z,311.35
2019-05-10T03:52:20.212Z,311.49
2019-05-10T03:53:20.260Z,312.28
2019-05-10T03:54:20.228Z,311.37
2019-05-10T03:55:20.196Z,312.10
2019-05-10T03:56:20.179Z,312.43
2019-05-10T03:57:20.149Z,312.16
2019-05-10T03:58:20.157Z,311.35
2019-05-10T03:59:20.144Z,311.84
2019-05-10T04:00:20.131Z,313.89
2019-05-10T04:01:20.118Z,312.80
2019-05-10T04:02:20.103Z,312.43
2019-05-10T04:03:20.093Z,313.80
2019-05-10T04:04:20.325Z,312.30
2019-05-10T04:05:20.094Z,311.52
2019-05-10T04:06:20.065Z,311.18
2019-05-10T04:07:20.045Z,310.72
2019-05-10T04:08:20.030Z,311.52
2019-05-10T04:09:20.059Z,311.60
2019-05-10T04:10:21.093Z,311.44
2019-05-10T04:11:20.044Z,311.60
2019-05-10T04:12:20.247Z,312.12
2019-05-10T04:13:23.189Z,312.07
2019-05-10T04:14:20.342Z,312.75
2019-05-10T04:15:23.784Z,312.36
2019-05-10T04:16:20.107Z,312.91
2019-05-10T04:17:20.919Z,312.85
2019-05-10T04:18:19.964Z,311.41
2019-05-10T04:19:22.115Z,312.69
2019-05-10T04:20:20.769Z,312.09
2019-05-10T04:21:20.005Z,311.99
2019-05-10T04:22:22.083Z,311.11
2019-05-10T04:23:20.327Z,312.09
2019-05-10T04:24:19.885Z,312.37
2019-05-10T04:25:19.866Z,311.91
2019-05-10T04:26:19.863Z,312.08
2019-05-10T04:27:31.497Z,311.79
2019-05-10T04:28:22.464Z,312.36
2019-05-10T04:29:19.889Z,312.09
2019-05-10T04:30:19.812Z,311.77
2019-05-10T04:31:19.948Z,311.81
2019-05-10T04:32:20.409Z,311.76
2019-05-10T04:33:19.812Z,311.64
2019-05-10T04:34:19.767Z,311.85
2019-05-10T04:35:20.072Z,312.33
2019-05-10T04:36:19.969Z,311.86
2019-05-10T04:37:19.737Z,312.59
2019-05-10T04:38:19.900Z,313.08
2019-05-10T04:39:19.761Z,314.09
2019-05-10T04:40:20.341Z,312.32
2019-05-10T04:41:19.863Z,312.25
2019-05-10T04:42:20.117Z,312.75
2019-05-10T04:43:20.867Z,312.46
2019-05-10T04:44:20.421Z,312.84
2019-05-10T04:45:21.930Z,312.33
2019-05-10T04:46:19.668Z,313.83
2019-05-10T04:47:23.905Z,311.61
2019-05-10T04:48:19.679Z,312.40
2019-05-10T04:49:19.623Z,312.61
2019-05-10T04:50:19.590Z,313.95
2019-05-10T04:51:19.596Z,312.32
2019-05-10T04:52:19.671Z,312.53
2019-05-10T04:53:19.568Z,312.70
2019-05-10T04:54:19.682Z,312.58
2019-05-10T04:55:19.581Z,312.17
2019-05-10T04:56:19.578Z,312.63
2019-05-10T04:57:21.727Z,312.55
2019-05-10T04:58:19.516Z,312.93
2019-05-10T04:59:21.307Z,313.20
2019-05-10T05:00:19.485Z,313.48
2019-05-10T05:01:20.418Z,313.23
2019-05-10T05:02:22.075Z,313.15
2019-05-10T05:03:20.532Z,313.59
2019-05-10T05:04:24.339Z,314.37
2019-05-10T05:05:29.858Z,312.47
2019-05-10T05:06:19.409Z,313.69
2019-05-10T05:07:19.393Z,313.26
2019-05-10T05:08:20.651Z,313.72
2019-05-10T05:09:24.457Z,313.68
2019-05-10T05:10:25.647Z,312.56
2019-05-10T05:11:19.958Z,313.67
2019-05-10T05:12:29.111Z,312.70
2019-05-10T05:13:21.066Z,313.72
2019-05-10T05:14:22.131Z,313.58
2019-05-10T05:15:19.414Z,313.63
2019-05-10T05:16:21.171Z,314.40
2019-05-10T05:17:22.058Z,314.46
2019-05-10T05:18:22.605Z,313.47
2019-05-10T05:19:19.287Z,314.08
2019-05-10T05:20:19.278Z,314.26
2019-05-10T05:21:19.278Z,313.66
2019-05-10T05:22:19.252Z,312.92
2019-05-10T05:23:19.224Z,313.17
2019-05-10T05:24:22.900Z,313.48
2019-05-10T05:25:21.995Z,312.56
2019-05-10T05:26:21.065Z,313.82
2019-05-10T05:27:20.994Z,313.57
2019-05-10T05:28:23.286Z,313.90
2019-05-10T05:29:22.007Z,314.14
2019-05-10T05:30:20.640Z,312.75
2019-05-10T05:31:34.228Z,311.66
2019-05-10T05:32:20.058Z,313.05
2019-05-10T05:33:20.090Z,312.47
2019-05-10T05:34:19.677Z,312.50
2019-05-10T05:35:19.168Z,312.42
2019-05-10T05:36:19.240Z,312.15
2019-05-10T05:37:19.124Z,311.66
2019-05-10T05:38:19.307Z,312.94
2019-05-10T05:39:19.212Z,312.87
2019-05-10T05:40:19.106Z,313.83
2019-05-10T05:41:19.075Z,312.52
2019-05-10T05:42:22.381Z,311.96
2019-05-10T05:43:21.773Z,312.02
2019-05-10T05:44:20.263Z,311.81
2019-05-10T05:45:20.187Z,312.21
2019-05-10T05:46:19.082Z,310.92
2019-05-10T05:47:19.686Z,310.92
2019-05-10T05:48:21.529Z,311.53
2019-05-10T05:49:18.971Z,311.64
2019-05-10T05:50:18.994Z,311.00
2019-05-10T05:51:19.093Z,310.81
2019-05-10T05:52:18.969Z,311.17
2019-05-10T05:53:22.425Z,311.45
2019-05-10T05:54:20.615Z,312.08
2019-05-10T05:55:22.766Z,310.81
2019-05-10T05:56:19.107Z,310.47
2019-05-10T05:57:22.243Z,311.51
2019-05-10T05:58:26.505Z,311.03
2019-05-10T05:59:23.799Z,311.75
2019-05-10T06:00:19.951Z,311.07
2019-05-10T06:01:26.124Z,311.32
2019-05-10T06:02:20.506Z,311.33
2019-05-10T06:03:27.767Z,311.38
2019-05-10T06:04:19.796Z,310.12
2019-05-10T06:05:32.708Z,311.44
2019-05-10T06:06:22.196Z,311.41
2019-05-10T06:07:18.756Z,310.85
2019-05-10T06:08:22.897Z,311.08
2019-05-10T06:09:19.750Z,310.16
2019-05-10T06:10:19.866Z,310.45
2019-05-10T06:11:19.499Z,309.82
2019-05-10T06:12:18.728Z,309.28
2019-05-10T06:13:23.515Z,310.64
2019-05-10T06:14:19.849Z,310.31
2019-05-10T06:15:23.078Z,310.50
2019-05-10T06:16:22.190Z,311.00
2019-05-10T06:17:23.831Z,310.16
2019-05-10T06:18:19.717Z,310.54
2019-05-10T06:19:19.944Z,309.86
2019-05-10T06:20:19.715Z,310.11
2019-05-10T06:21:25.110Z,310.63
2019-05-10T06:22:19.638Z,309.85
2019-05-10T06:23:18.640Z,309.42
2019-05-10T06:24:18.649Z,311.05
2019-05-10T06:25:18.733Z,310.99
2019-05-10T06:26:26.503Z,309.84
2019-05-10T06:27:19.638Z,309.57
2019-05-10T06:28:26.899Z,310.53
2019-05-10T06:29:19.860Z,310.35
2019-05-10T06:30:18.560Z,310.49
2019-05-10T06:31:18.554Z,310.09
2019-05-10T06:32:18.615Z,309.11
2019-05-10T06:33:21.132Z,309.60
2019-05-10T06:34:18.533Z,309.69
2019-05-10T06:35:19.548Z,309.77
2019-05-10T06:36:18.563Z,310.14
2019-05-10T06:37:18.562Z,310.76
2019-05-10T06:38:18.490Z,310.99
2019-05-10T06:39:18.541Z,311.22
2019-05-10T06:40:25.659Z,310.73
2019-05-10T06:41:19.422Z,310.58
2019-05-10T06:42:18.655Z,309.48
2019-05-10T06:43:18.448Z,309.89
2019-05-10T06:44:18.458Z,309.60
2019-05-10T06:45:18.372Z,310.31
2019-05-10T06:46:18.483Z,310.10
2019-05-10T06:47:21.681Z,310.39
2019-05-10T06:48:25.763Z,309.64
2019-05-10T06:49:19.349Z,309.86
2019-05-10T06:50:28.997Z,310.30
2019-05-10T06:51:19.379Z,309.75
2019-05-10T06:52:22.023Z,310.63
2019-05-10T06:53:22.993Z,310.60
2019-05-10T06:54:19.022Z,310.84
2019-05-10T06:55:18.275Z,311.68
2019-05-10T06:56:18.288Z,311.21
2019-05-10T06:57:19.388Z,310.38
2019-05-10T06:58:19.013Z,310.00
2019-05-10T06:59:19.455Z,310.11
2019-05-10T07:00:20.207Z,309.26
2019-05-10T07:01:18.228Z,309.66
2019-05-10T07:02:19.938Z,310.04
2019-05-10T07:03:19.256Z,310.20
2019-05-10T07:04:19.098Z,309.97
2019-05-10T07:05:18.258Z,309.84
2019-05-10T07:06:20.063Z,310.15
2019-05-10T07:07:33.112Z,310.40
2019-05-10T07:08:20.584Z,308.99
2019-05-10T07:09:19.015Z,309.70
2019-05-10T07:10:19.380Z,309.87
2019-05-10T07:11:19.136Z,309.90
2019-05-10T07:12:18.554Z,309.27
2019-05-10T07:13:18.210Z,309.46
2019-05-10T07:14:18.516Z,309.56
2019-05-10T07:15:18.092Z,309.46
2019-05-10T07:16:24.096Z,309.37
2019-05-10T07:17:20.016Z,309.81
2019-05-10T07:18:22.533Z,310.68
2019-05-10T07:19:19.082Z,310.39
2019-05-10T07:20:18.059Z,311.09
2019-05-10T07:21:17.977Z,309.66
2019-05-10T07:22:21.673Z,310.00
2019-05-10T07:23:19.034Z,310.14
2019-05-10T07:24:24.347Z,309.66
2019-05-10T07:25:18.974Z,309.36
2019-05-10T07:26:24.599Z,309.76
2019-05-10T07:27:18.952Z,309.42
2019-05-10T07:28:17.980Z,309.61
2019-05-10T07:29:29.723Z,308.67
2019-05-10T07:30:18.896Z,308.63
2019-05-10T07:31:17.906Z,309.15
2019-05-10T07:32:22.118Z,309.06
2019-05-10T07:33:21.025Z,309.66
2019-05-10T07:34:17.884Z,309.35
2019-05-10T07:35:17.894Z,310.62
2019-05-10T07:36:20.920Z,310.40
2019-05-10T07:37:18.831Z,310.25
2019-05-10T07:38:23.520Z,310.77
2019-05-10T07:39:18.843Z,309.66
2019-05-10T07:40:18.525Z,310.79
2019-05-10T07:41:19.648Z,311.88
2019-05-10T07:42:18.911Z,309.87
2019-05-10T07:43:24.877Z,310.77
2019-05-10T07:44:19.688Z,309.91
2019-05-10T07:45:18.763Z,310.33
2019-05-10T07:46:18.729Z,310.30
2019-05-10T07:47:18.575Z,310.98
2019-05-10T07:48:17.943Z,309.27
2019-05-10T07:49:17.730Z,309.83
2019-05-10T07:50:17.846Z,310.13
2019-05-10T07:51:22.681Z,311.15
2019-05-10T07:52:18.676Z,309.35
2019-05-10T07:53:22.908Z,310.52
2019-05-10T07:54:18.672Z,311.25
2019-05-10T07:55:25.346Z,310.59
2019-05-10T07:56:19.579Z,309.91
2019-05-10T07:57:18.591Z,310.19
2019-05-10T07:58:18.589Z,310.08
2019-05-10T07:59:21.962Z,309.67
2019-05-10T08:00:18.567Z,309.36
2019-05-10T08:01:29.083Z,309.26
2019-05-10T08:02:18.557Z,310.71
2019-05-10T08:03:23.359Z,310.11
2019-05-10T08:04:27.574Z,309.99
2019-05-10T08:05:18.620Z,310.23
2019-05-10T08:06:19.350Z,311.14
2019-05-10T08:07:18.552Z,310.83
2019-05-10T08:08:19.217Z,311.22
2019-05-10T08:09:19.279Z,310.90
2019-05-10T08:10:19.066Z,311.21
2019-05-10T08:12:40.135Z,303.09
2019-05-10T08:13:45.635Z,309.73
2019-05-10T08:15:52.270Z,301.40
2019-05-10T08:17:05.789Z,309.97
2019-05-10T08:17:52.223Z,310.76
2019-05-10T08:18:55.574Z,309.74
2019-05-10T08:19:55.058Z,311.10
2019-05-10T08:20:57.742Z,309.38
2019-05-10T08:21:57.403Z,310.69
2019-05-10T08:22:53.220Z,310.09
2019-05-10T08:23:53.997Z,310.37
2019-05-10T08:24:55.896Z,310.31
2019-05-10T08:27:14.006Z,301.78
2019-05-10T08:28:09.725Z,309.96
2019-05-10T08:29:15.129Z,309.27
2019-05-10T08:30:22.756Z,308.99
2019-05-10T08:31:12.183Z,309.50
2019-05-10T08:32:08.648Z,308.51
2019-05-10T08:33:10.851Z,308.32
2019-05-10T08:34:08.681Z,309.20
2019-05-10T08:35:16.207Z,308.39
2019-05-10T08:36:11.968Z,308.15
2019-05-10T08:37:08.610Z,308.31
2019-05-10T08:38:08.697Z,308.92
2019-05-10T08:39:11.025Z,309.66
2019-05-10T08:40:09.480Z,308.80
2019-05-10T08:41:13.469Z,308.07
2019-05-10T08:42:29.391Z,308.13
2019-05-10T08:43:13.041Z,307.31
2019-05-10T08:44:16.638Z,308.21
2019-05-10T08:45:09.530Z,307.08
2019-05-10T08:46:08.617Z,307.57
2019-05-10T08:47:12.592Z,306.91
2019-05-10T08:48:09.525Z,307.85
2019-05-10T08:49:09.483Z,307.61
2019-05-10T08:50:21.552Z,307.58
2019-05-10T08:51:09.493Z,308.09
2019-05-10T08:52:08.549Z,307.37
2019-05-10T08:53:10.698Z,307.08
2019-05-10T08:54:08.469Z,307.29
2019-05-10T08:55:08.516Z,307.86
2019-05-10T08:56:16.063Z,306.69
2019-05-10T08:57:12.671Z,306.46
2019-05-10T08:58:09.384Z,306.31
2019-05-10T08:59:14.567Z,306.90
2019-05-10T09:00:09.487Z,307.00
2019-05-10T09:01:20.550Z,306.56
2019-05-10T09:02:09.395Z,307.05
2019-05-10T09:03:09.761Z,307.51
2019-05-10T09:04:10.874Z,307.39
2019-05-10T09:05:08.317Z,306.89
2019-05-10T09:06:11.862Z,306.57
2019-05-10T09:07:11.766Z,306.46
2019-05-10T09:08:13.555Z,306.75
2019-05-10T09:09:09.337Z,306.50
2019-05-10T09:10:09.692Z,307.17
2019-05-10T09:11:08.313Z,307.64
2019-05-10T09:12:09.332Z,307.70
2019-05-10T09:13:08.255Z,308.41
2019-05-10T09:14:12.380Z,308.18
2019-05-10T09:15:10.308Z,307.76
2019-05-10T09:16:08.262Z,306.92
2019-05-10T09:17:08.259Z,307.56
2019-05-10T09:18:08.351Z,307.61
2019-05-10T09:19:08.188Z,307.86
2019-05-10T09:20:11.984Z,307.34
2019-05-10T09:21:10.814Z,307.75
2019-05-10T09:22:08.999Z,308.56
2019-05-10T09:23:08.589Z,307.42
2019-05-10T09:24:09.275Z,308.13
2019-05-10T09:25:08.097Z,307.66
2019-05-10T09:26:11.725Z,309.30
2019-05-10T09:27:09.133Z,308.42
2019-05-10T09:28:11.511Z,308.75
2019-05-10T09:29:09.062Z,309.71
2019-05-10T09:30:13.055Z,308.62
2019-05-10T09:31:18.648Z,307.86
2019-05-10T09:32:09.265Z,307.14
2019-05-10T09:33:09.005Z,307.42
2019-05-10T09:34:08.119Z,306.78
2019-05-10T09:35:09.218Z,307.60
2019-05-10T09:36:07.995Z,306.98
2019-05-10T09:37:13.124Z,307.62
2019-05-10T09:38:09.033Z,307.72
2019-05-10T09:39:12.618Z,307.19
2019-05-10T09:40:09.865Z,307.48
2019-05-10T09:41:07.928Z,307.99
2019-05-10T09:42:11.036Z,307.95
2019-05-10T09:43:09.866Z,307.82
2019-05-10T09:44:07.884Z,307.39
2019-05-10T09:45:09.839Z,307.11
2019-05-10T09:46:08.556Z,306.22
2019-05-10T09:47:07.895Z,307.76
2019-05-10T09:48:07.853Z,306.68
2019-05-10T09:49:15.746Z,306.91
2019-05-10T09:50:08.920Z,307.72
2019-05-10T09:51:08.561Z,307.72
2019-05-10T09:52:12.527Z,307.64
2019-05-10T09:53:10.254Z,307.80
2019-05-10T09:54:07.864Z,307.39
2019-05-10T09:55:10.232Z,308.08
2019-05-10T09:56:08.780Z,307.42
2019-05-10T09:57:08.268Z,309.32
2019-05-10T09:58:08.590Z,308.46
2019-05-10T09:59:08.527Z,307.40
2019-05-10T10:00:07.734Z,307.19
2019-05-10T10:01:14.801Z,307.52
2019-05-10T10:02:14.549Z,307.16
2019-05-10T10:03:08.753Z,308.15
2019-05-10T10:04:07.701Z,307.73
2019-05-10T10:05:07.663Z,308.18
2019-05-10T10:06:11.117Z,307.76
2019-05-10T10:07:07.672Z,309.29
2019-05-10T10:08:09.086Z,309.58
2019-05-10T10:09:10.845Z,310.70
2019-05-10T10:10:07.771Z,311.01
2019-05-10T10:11:15.094Z,310.48
2019-05-10T10:12:08.585Z,312.65
2019-05-10T10:13:13.190Z,311.66
2019-05-10T10:14:10.206Z,312.33
2019-05-10T10:15:09.983Z,311.52
2019-05-10T10:16:10.338Z,309.98
2019-05-10T10:17:08.661Z,311.74
2019-05-10T10:18:07.546Z,312.69
2019-05-10T10:19:07.540Z,311.37
2019-05-10T10:20:08.452Z,310.20
2019-05-10T10:21:10.050Z,312.11
2019-05-10T10:22:11.115Z,311.58
2019-05-10T10:23:08.535Z,311.46
2019-05-10T10:24:15.791Z,313.84
2019-05-10T10:25:08.461Z,310.17
2019-05-10T10:26:07.450Z,312.02
2019-05-10T10:27:07.568Z,310.68
2019-05-10T10:28:16.452Z,310.27
2019-05-10T10:29:08.441Z,311.43
2019-05-10T10:30:12.861Z,311.77
2019-05-10T10:31:08.606Z,310.72
2019-05-10T10:32:08.130Z,310.76
2019-05-10T10:33:11.483Z,310.81
2019-05-10T10:34:08.350Z,311.37
2019-05-10T10:35:08.077Z,311.28
2019-05-10T10:36:10.417Z,311.86
2019-05-10T10:37:07.938Z,312.40
2019-05-10T10:38:08.073Z,312.90
2019-05-10T10:39:07.535Z,311.78
2019-05-10T10:40:08.701Z,310.96
2019-05-10T10:41:25.606Z,311.19
2019-05-10T10:42:12.940Z,311.63
2019-05-10T10:43:08.282Z,311.74
2019-05-10T10:44:08.414Z,311.70
2019-05-10T10:45:07.443Z,313.06
2019-05-10T10:46:11.962Z,310.25
2019-05-10T10:47:08.410Z,308.39
2019-05-10T10:48:12.598Z,310.04
2019-05-10T10:49:10.449Z,310.03
2019-05-10T10:50:09.108Z,308.65
2019-05-10T10:51:08.235Z,310.27
2019-05-10T10:52:11.380Z,310.31
2019-05-10T10:54:22.200Z,302.34
2019-05-10T10:55:18.720Z,310.69
2019-05-10T10:56:17.791Z,311.48
2019-05-10T10:57:18.052Z,310.54
2019-05-10T10:58:18.927Z,310.43
2019-05-10T10:59:18.302Z,308.93
2019-05-10T11:00:23.244Z,310.01
2019-05-10T11:01:24.979Z,310.14
2019-05-10T11:02:32.691Z,308.55
2019-05-10T11:03:18.725Z,309.71
2019-05-10T11:04:29.140Z,310.03
2019-05-10T11:05:26.700Z,309.17
2019-05-10T11:06:17.619Z,309.99
2019-05-10T11:07:17.621Z,310.40
2019-05-10T11:08:17.602Z,309.61
2019-05-10T11:09:17.597Z,310.31
2019-05-10T11:10:19.282Z,306.49
2019-05-10T11:11:17.569Z,307.58
2019-05-10T11:12:20.849Z,307.69
2019-05-10T11:13:29.029Z,307.55
2019-05-10T11:14:20.545Z,306.25
2019-05-10T11:15:23.086Z,306.36
2019-05-10T11:16:20.663Z,307.62
2019-05-10T11:17:17.522Z,308.26
2019-05-10T11:18:17.507Z,308.91
2019-05-10T11:19:17.482Z,308.43
2019-05-10T11:20:17.478Z,308.34
2019-05-10T11:21:17.464Z,309.30
2019-05-10T11:22:17.484Z,309.70
2019-05-10T11:23:17.440Z,307.83
2019-05-10T11:24:18.731Z,308.68
2019-05-10T11:25:17.448Z,307.33
2019-05-10T11:26:17.439Z,308.25
2019-05-10T11:27:17.509Z,308.10
2019-05-10T11:28:17.413Z,308.30
2019-05-10T11:29:25.332Z,307.52
2019-05-10T11:30:18.426Z,307.20
2019-05-10T11:31:17.365Z,308.02
2019-05-10T11:32:17.372Z,307.15
2019-05-10T11:33:27.291Z,306.96
2019-05-10T11:34:18.379Z,307.35
2019-05-10T11:35:25.204Z,308.32
2019-05-10T11:36:18.339Z,309.04
2019-05-10T11:37:18.562Z,308.53
2019-05-10T11:38:18.309Z,308.51
2019-05-10T11:39:25.920Z,307.75
2019-05-10T11:40:28.032Z,308.60
2019-05-10T11:41:23.654Z,307.41
2019-05-10T11:42:18.256Z,307.73
2019-05-10T11:43:17.511Z,306.46
2019-05-10T11:44:18.241Z,307.28
2019-05-10T11:45:17.226Z,307.51
2019-05-10T11:46:17.331Z,309.01
2019-05-10T11:47:24.094Z,309.08
2019-05-10T11:48:18.184Z,308.70
2019-05-10T11:49:17.201Z,308.23
2019-05-10T11:51:18.154Z,307.52
2019-05-10T11:52:17.138Z,308.26
2019-05-10T11:53:17.606Z,307.94
2019-05-10T11:54:17.107Z,307.05
2019-05-10T11:55:17.112Z,307.54
2019-05-10T11:56:17.210Z,308.51
2019-05-10T11:57:17.100Z,307.77
2019-05-10T11:58:17.083Z,305.72
2019-05-10T11:59:03.714Z,308.40
2019-05-10T11:59:17.072Z,308.16
2019-05-10T12:00:28.069Z,307.31
2019-05-10T12:01:21.481Z,306.94
2019-05-10T12:02:35.392Z,309.95
2019-05-10T12:03:22.388Z,305.37
2019-05-10T12:04:23.888Z,308.65
2019-05-10T12:05:22.806Z,307.30
2019-05-10T12:06:18.023Z,308.72
2019-05-10T12:07:23.892Z,307.70
2019-05-10T12:08:17.970Z,307.01
2019-05-10T12:09:16.977Z,302.65
2019-05-10T12:10:20.999Z,306.38
2019-05-10T12:11:29.409Z,307.16
2019-05-10T12:12:29.716Z,307.24
2019-05-10T12:13:20.824Z,306.47
2019-05-10T12:14:17.910Z,308.43
2019-05-10T12:15:24.741Z,304.73
2019-05-10T12:16:18.019Z,307.11
2019-05-10T12:17:16.906Z,305.79
2019-05-10T12:18:21.909Z,306.58
2019-05-10T12:19:21.253Z,305.30
2019-05-10T12:20:17.177Z,306.35
2019-05-10T12:21:16.873Z,305.20
2019-05-10T12:22:16.907Z,305.72
2019-05-10T12:23:22.877Z,300.79
2019-05-10T12:25:38.020Z,304.97
2019-05-10T12:26:50.013Z,304.51
2019-05-10T12:27:25.960Z,304.90
2019-05-10T12:28:24.524Z,305.25
2019-05-10T12:29:17.776Z,304.67
2019-05-10T12:30:16.773Z,303.98
2019-05-10T12:31:17.260Z,304.55
2019-05-10T12:32:16.733Z,305.90
2019-05-10T12:33:23.779Z,303.39
2019-05-10T12:34:17.742Z,306.29
2019-05-10T12:35:16.734Z,303.67